Chelmsford, United Kingdom
Current Conditions -  °F | °C
As of 9:50 PM on Sunday 23 Nov 2014 (Local Time) from EGSS Reporting Station
Clear Clear  
Wind Chill: 37°   Ceiling: Unl
Heat Index: 41°   Visibility: 6mi
Dew Point: 39°   Wind: 6mph
Humidity: 93%   Direction: 320°NW
Pressure: 30.12"   Gusts: NA
Location:  51.74°N, 0.47°E
Report Text: EGSS 232150Z 32005KT CAVOK 05/04 Q1020
Loading
Personal Weather Stations






























Interactive Weather Map New forecast layout! Learn more

10-Day Weather Forecast

Advertisements
Track Severe Weather on mobile